KOQT  Oak Ridge Airport

Add Bookmark

Tennessee, United States

Status
Operational
Latitude Longitude
36° 1' 12" N 84° 13' 48" W
36.020000 -84.230000
Local (DST -4) UTC (GMT -5)
Jul 23, 2014 05:42 Jul 23, 2014 09:42
Sunrise-Sunset Local UTC
Begin Civil Twilight 06:07 10:07
Sunrise 06:36 10:36
Sunset 08:50 00:50
End Civil Twilight 09:19 01:19

Current Weather

METAR Observed VFR
KOQT 230853Z AUTO 00000KT 10SM OVC070 24/22 A3009 Wed, Jul 23, 2014 @ 08:53 UTC
(49 Minutes ago)
Visual Flight Rules

Decoded METAR

Wind Visibility Clouds Conditions
Calm 10 statute miles
  • Overcast at 7,000' AGL
  • No significant weather
Temperatures Readings Precipitation
Current Temp 24°C (75°F)
Dewpoint 22°C (72°F)
Humidity 89%
Altimeter 30.09"Hg
Sea Level Pressure 1017.1mb
Field Elevation 908.79'
None Recorded

Additional weather within a 50nm radius of KOQT

Map ICAO Location METAR
KTYS 17nm S (137°) 49 mins ago
KMMI 40.6nm S (204°) 27 mins ago
KCSV 41.7nm W (265°) 49 mins ago
K1A6 42.7nm N (034°) 27 mins ago

24 Hour Weather History

Loading
-

24 Hour Weather Graphs

Loading
-

CheckWX.com is intended as a tool to help pilots better visualize weather data. It is not intended as a substitute for an official weather briefing obtained from a Flight Service Station. CheckWX.com does not meet the FAA requirements for an official pre-flight weather briefing. Therefore, it's important that pilots still call and obtain an official FSS pre-flight weather briefing.